Time;durP1;ratioP1;P1;durP2;ratioP2;P2;SDS_P1;SDS_P2;PMS_P1;PMS_P2;Temp;Humidity;BMP_temperature;BMP_pressure;BME280_temperature;BME280_humidity;BME280_pressure;Samples;Min_cycle;Max_cycle;Signal;HPM_P1;HPM_P2
2021/07/23 00:02:22;;;;;;;15.02;8.82;;;;;;;14.16;89.97;99226.19;5056955;28;20018;-66
2021/07/23 00:04:48;;;;;;;16.33;9.10;;;;;;;13.95;89.51;99258.47;5061856;28;20021;-66
2021/07/23 00:07:13;;;;;;;15.23;7.75;;;;;;;13.99;90.08;99249.53;5062275;28;20018;-66
2021/07/23 00:09:39;;;;;;;14.65;7.88;;;;;;;14.12;90.04;99227.16;5059990;28;20064;-66
2021/07/23 00:12:04;;;;;;;14.55;9.77;;;;;;;14.04;90.17;99218.53;5060894;28;20316;-66
2021/07/23 00:14:30;;;;;;;14.60;9.02;;;;;;;13.97;90.04;99224.88;5063001;28;20024;-66
2021/07/23 00:16:55;;;;;;;15.13;8.48;;;;;;;13.93;89.92;99213.50;5060509;28;20055;-66
2021/07/23 00:19:21;;;;;;;15.23;8.77;;;;;;;13.93;90.11;99215.28;5062537;28;20035;-66
2021/07/23 00:21:46;;;;;;;12.35;8.55;;;;;;;13.89;90.06;99232.16;5060589;28;20059;-66
2021/07/23 00:24:12;;;;;;;15.73;8.88;;;;;;;13.78;90.42;99207.69;5062959;28;20066;-66
2021/07/23 00:26:37;;;;;;;11.93;8.10;;;;;;;13.72;89.79;99205.19;5057392;28;20022;-66
2021/07/23 00:29:03;;;;;;;12.90;8.13;;;;;;;13.75;90.37;99197.16;5064623;28;20045;-66
2021/07/23 00:31:28;;;;;;;15.82;8.10;;;;;;;13.67;90.39;99189.41;5061714;28;20220;-66
2021/07/23 00:33:53;;;;;;;10.82;7.68;;;;;;;13.78;90.30;99191.81;5050152;28;20017;-66
2021/07/23 00:36:19;;;;;;;12.32;7.57;;;;;;;13.67;90.01;99183.28;5050126;28;20056;-66
2021/07/23 00:38:44;;;;;;;11.65;7.60;;;;;;;13.59;90.22;99174.63;5050017;28;20021;-66
2021/07/23 00:41:09;;;;;;;10.57;6.88;;;;;;;13.54;89.76;99176.53;5048918;28;20025;-66
2021/07/23 00:43:35;;;;;;;14.10;6.85;;;;;;;13.53;90.17;99174.75;5048805;28;20021;-66
2021/07/23 00:46:00;;;;;;;11.38;7.35;;;;;;;13.62;90.36;99182.50;5049874;28;20052;-66
2021/07/23 00:48:26;;;;;;;15.75;7.78;;;;;;;13.70;90.23;99177.91;5051051;28;20025;-66
2021/07/23 00:50:52;;;;;;;13.05;8.45;;;;;;;13.78;90.41;99182.09;5062868;28;20020;-66
2021/07/23 00:53:17;;;;;;;12.52;7.50;;;;;;;13.84;90.32;99181.09;5063096;28;20066;-66
2021/07/23 00:55:51;;;;;;;16.90;7.35;;;;;;;13.66;89.29;99174.44;5061466;28;20021;-66
2021/07/23 00:58:17;;;;;;;11.18;7.47;;;;;;;13.65;89.63;99178.00;5059827;28;20347;-66
2021/07/23 01:00:42;;;;;;;8.75;6.05;;;;;;;13.73;89.55;99183.13;5059195;28;20017;-66
2021/07/23 01:03:08;;;;;;;10.23;6.80;;;;;;;13.56;89.78;99164.09;5080789;23;20060;-87
2021/07/23 01:05:35;;;;;;;11.40;7.18;;;;;;;13.35;89.81;99146.09;5100268;28;20276;-87
2021/07/23 01:08:01;;;;;;;11.77;7.30;;;;;;;13.29;90.33;99148.88;5080961;28;20036;-87
2021/07/23 01:10:27;;;;;;;12.40;8.05;;;;;;;13.25;91.16;99145.41;5085217;28;20023;-87
2021/07/23 01:12:53;;;;;;;12.82;8.48;;;;;;;13.28;91.62;99210.56;5085351;28;20016;-87
2021/07/23 01:15:19;;;;;;;14.60;8.15;;;;;;;13.27;90.88;99219.41;5083899;28;20364;-87
2021/07/23 01:17:44;;;;;;;11.07;8.13;;;;;;;13.35;90.49;99233.34;5100924;28;20082;-87
2021/07/23 01:20:21;;;;;;;15.80;7.63;;;;;;;13.32;90.14;99265.13;5085107;28;20016;-87
2021/07/23 01:22:47;;;;;;;11.02;7.85;;;;;;;13.29;90.29;99270.50;5077105;28;20020;-87
2021/07/23 01:25:14;;;;;;;13.13;7.68;;;;;;;13.41;90.10;99286.13;5076735;28;20066;-87
2021/07/23 01:27:46;;;;;;;14.27;8.13;;;;;;;13.28;90.26;99305.75;5079869;28;20022;-87
2021/07/23 01:30:14;;;;;;;14.65;8.95;;;;;;;13.13;90.23;99308.69;5099370;28;20311;-87
2021/07/23 01:32:39;;;;;;;12.88;7.80;;;;;;;13.17;90.38;99313.00;5069899;28;20203;-87
2021/07/23 01:35:06;;;;;;;16.15;8.57;;;;;;;13.10;90.03;99319.31;5073290;28;20095;-87
2021/07/23 01:37:32;;;;;;;17.58;7.88;;;;;;;13.20;90.68;99308.56;5072069;28;20012;-87
2021/07/23 01:39:58;;;;;;;14.65;8.50;;;;;;;13.15;90.19;99306.88;5075020;28;20019;-87
2021/07/23 01:42:26;;;;;;;10.60;7.18;;;;;;;13.20;90.22;99328.81;5083340;28;20091;-87
2021/07/23 01:44:51;;;;;;;12.68;7.18;;;;;;;13.29;90.05;99318.94;5082130;28;20090;-87
2021/07/23 01:47:17;;;;;;;12.65;7.53;;;;;;;13.30;90.01;99288.09;5081280;28;20044;-87
2021/07/23 01:49:42;;;;;;;13.02;7.43;;;;;;;13.25;89.60;99324.34;5080596;28;20083;-87
2021/07/23 01:52:08;;;;;;;13.55;7.50;;;;;;;13.07;89.60;99297.31;5082709;28;20042;-87
2021/07/23 01:54:33;;;;;;;10.55;7.00;;;;;;;13.07;89.48;99292.03;5084247;28;20020;-87
2021/07/23 01:56:58;;;;;;;13.93;8.38;;;;;;;13.09;89.48;99273.50;5085815;28;20079;-87
2021/07/23 01:59:24;;;;;;;16.48;8.63;;;;;;;12.95;90.07;99296.66;5077500;28;20031;-87
2021/07/23 02:01:49;;;;;;;11.63;7.40;;;;;;;12.97;90.22;99263.13;5071534;28;20079;-87
2021/07/23 02:04:15;;;;;;;12.68;7.78;;;;;;;12.97;90.23;99311.59;5086429;28;20346;-87
2021/07/23 02:06:40;;;;;;;12.18;6.95;;;;;;;12.82;89.86;99306.56;5085956;28;20026;-87
2021/07/23 02:09:05;;;;;;;11.90;7.35;;;;;;;12.80;89.83;99318.94;5086110;28;20095;-87
2021/07/23 02:11:31;;;;;;;11.68;7.20;;;;;;;12.74;90.05;99324.34;5086235;28;20251;-87
2021/07/23 02:13:58;;;;;;;13.45;8.07;;;;;;;12.73;90.58;99327.88;5086530;28;20058;-87
2021/07/23 02:16:24;;;;;;;14.02;7.30;;;;;;;12.66;89.89;99336.78;5086281;28;20028;-87
2021/07/23 02:18:50;;;;;;;10.75;6.13;;;;;;;12.56;89.65;99274.44;5086416;28;20026;-87
2021/07/23 02:21:16;;;;;;;10.98;7.68;;;;;;;12.60;89.97;99321.03;5086267;28;20028;-87
2021/07/23 02:23:41;;;;;;;13.68;7.45;;;;;;;12.59;90.10;99250.63;5104170;28;20083;-87
2021/07/23 02:26:20;;;;;;;10.82;7.15;;;;;;;12.58;90.20;99264.75;5086305;28;20023;-87
2021/07/23 02:28:46;;;;;;;11.40;6.38;;;;;;;12.72;90.18;99267.16;5085904;28;20016;-87
2021/07/23 02:31:12;;;;;;;13.55;7.13;;;;;;;12.60;89.80;99320.19;5086043;28;20069;-87
2021/07/23 02:33:38;;;;;;;15.57;7.13;;;;;;;12.42;90.75;99316.06;5086272;28;20289;-87
2021/07/23 02:36:04;;;;;;;29.30;7.55;;;;;;;12.39;91.07;99320.50;5085989;28;20314;-87
2021/07/23 02:38:29;;;;;;;12.48;6.93;;;;;;;12.33;91.49;99337.31;5086116;28;20020;-87
2021/07/23 02:40:56;;;;;;;14.18;7.85;;;;;;;12.41;91.68;99377.66;5086409;28;20047;-87
2021/07/23 02:43:22;;;;;;;14.48;6.68;;;;;;;12.54;91.08;99379.25;5086135;28;20061;-87
2021/07/23 02:45:47;;;;;;;13.32;7.13;;;;;;;12.48;90.61;99384.63;5085766;28;20016;-87
2021/07/23 02:48:13;;;;;;;13.35;6.90;;;;;;;12.45;90.26;99428.66;5103948;28;20047;-87
2021/07/23 02:50:38;;;;;;;13.75;6.57;;;;;;;12.46;89.93;99396.97;5085857;28;20012;-87
2021/07/23 02:53:04;;;;;;;12.88;7.07;;;;;;;12.36;89.84;99379.53;5085846;28;20027;-87
2021/07/23 02:55:30;;;;;;;9.52;6.38;;;;;;;12.30;89.92;99395.44;5085820;28;20016;-87
2021/07/23 02:57:56;;;;;;;12.82;7.38;;;;;;;12.32;90.25;99387.50;5104212;28;20197;-87
2021/07/23 03:00:24;;;;;;;12.88;6.70;;;;;;;12.27;90.65;99397.25;5085670;28;20043;-86
2021/07/23 03:02:50;;;;;;;17.33;7.60;;;;;;;12.23;90.11;99406.97;5085468;28;20100;-87
2021/07/23 03:05:16;;;;;;;12.02;6.38;;;;;;;12.33;89.91;99376.03;5085905;28;20099;-87
2021/07/23 03:07:41;;;;;;;9.43;6.20;;;;;;;12.36;89.93;99384.78;5085817;28;20027;-87
2021/07/23 03:10:07;;;;;;;10.32;6.13;;;;;;;12.38;90.17;99366.28;5085705;28;20091;-87
2021/07/23 03:12:33;;;;;;;12.23;6.55;;;;;;;12.27;90.13;99406.03;5085465;28;20104;-87
2021/07/23 03:14:59;;;;;;;15.05;6.50;;;;;;;12.18;90.03;99427.28;5085513;28;20297;-87
2021/07/23 03:17:24;;;;;;;11.02;6.28;;;;;;;12.23;90.24;99450.97;5103029;28;20188;-87
2021/07/23 03:19:50;;;;;;;10.00;6.55;;;;;;;12.24;90.35;99429.84;5085192;28;20019;-87
2021/07/23 03:22:15;;;;;;;10.80;5.88;;;;;;;12.23;90.33;99401.72;5085779;28;20016;-87
2021/07/23 03:24:40;;;;;;;6.75;5.05;;;;;;;12.23;90.30;99404.34;5085566;28;20016;-87
2021/07/23 03:27:06;;;;;;;10.13;5.28;;;;;;;12.24;90.33;99395.53;5103372;28;20020;-87
2021/07/23 03:29:31;;;;;;;9.10;5.53;;;;;;;12.19;89.86;99397.38;5085333;28;20016;-87
2021/07/23 03:31:57;;;;;;;9.93;5.63;;;;;;;12.12;90.12;99411.50;5085342;28;20016;-87
2021/07/23 03:34:22;;;;;;;12.50;6.97;;;;;;;12.07;90.12;99363.22;5085326;28;20047;-86
2021/07/23 03:36:48;;;;;;;12.00;6.88;;;;;;;12.09;90.09;99364.06;5103414;28;20080;-86
2021/07/23 03:39:13;;;;;;;11.77;7.15;;;;;;;12.02;89.59;99388.78;5086237;28;20020;-87
2021/07/23 03:41:38;;;;;;;13.35;6.63;;;;;;;11.95;90.09;99354.59;5089620;28;20020;-87
2021/07/23 03:44:04;;;;;;;10.80;6.35;;;;;;;12.04;89.82;99410.75;5089500;28;20015;-87
2021/07/23 03:46:29;;;;;;;12.10;7.00;;;;;;;12.03;90.26;99364.16;5088770;28;20023;-87
2021/07/23 03:48:56;;;;;;;11.02;6.47;;;;;;;11.97;89.74;99409.09;5089202;28;20012;-87
2021/07/23 03:51:22;;;;;;;12.73;6.13;;;;;;;11.98;89.85;99445.13;5089439;28;20020;-87
2021/07/23 03:53:47;;;;;;;10.10;6.10;;;;;;;11.94;89.80;99448.72;5088902;28;20023;-86
2021/07/23 03:56:13;;;;;;;10.10;4.95;;;;;;;12.01;90.14;99416.06;5089048;28;20018;-86
2021/07/23 03:58:39;;;;;;;12.00;5.63;;;;;;;11.95;90.34;99405.59;5107216;28;20019;-87
2021/07/23 04:01:07;;;;;;;9.00;5.63;;;;;;;11.86;89.90;99381.97;5089092;28;20103;-86
2021/07/23 04:03:33;;;;;;;10.98;5.30;;;;;;;11.84;90.19;99388.16;5088698;28;20069;-87
2021/07/23 04:05:59;;;;;;;7.38;5.63;;;;;;;11.77;90.75;99433.97;5088682;28;20237;-87
2021/07/23 04:08:25;;;;;;;7.20;4.97;;;;;;;11.86;90.32;99445.28;5088698;28;20020;-87
2021/07/23 04:10:50;;;;;;;8.57;5.50;;;;;;;12.00;90.11;99475.03;5107142;28;20016;-86
2021/07/23 04:13:16;;;;;;;9.93;5.90;;;;;;;11.83;89.76;99434.75;5089514;28;20039;-86
2021/07/23 04:15:41;;;;;;;8.93;5.88;;;;;;;11.78;90.26;99483.19;5089430;28;20020;-85
2021/07/23 04:18:07;;;;;;;14.40;5.53;;;;;;;11.85;90.16;99471.66;5089566;28;20008;-86
2021/07/23 04:20:33;;;;;;;11.25;6.25;;;;;;;11.86;90.26;99505.94;5088301;28;20184;-87
2021/07/23 04:22:58;;;;;;;9.90;6.18;;;;;;;11.83;90.24;99440.03;5088242;28;20052;-87
2021/07/23 04:25:24;;;;;;;11.48;6.45;;;;;;;11.90;90.26;99505.00;5087994;28;20037;-86
2021/07/23 04:27:49;;;;;;;8.40;5.07;;;;;;;12.03;89.96;99501.38;5088106;28;21151;-85
2021/07/23 04:30:16;;;;;;;7.60;4.40;;;;;;;12.09;90.21;99498.63;5088272;28;20187;-86
2021/07/23 04:32:42;;;;;;;8.52;5.25;;;;;;;12.03;90.00;99509.28;5088382;28;20356;-86
2021/07/23 04:35:09;;;;;;;7.35;4.25;;;;;;;12.08;90.15;99547.03;5106549;28;20039;-86
2021/07/23 04:37:34;;;;;;;8.07;4.45;;;;;;;12.07;90.39;99547.94;5088282;28;20058;-86
2021/07/23 04:40:01;;;;;;;5.00;3.45;;;;;;;12.24;90.29;99548.63;5088553;28;20015;-87
2021/07/23 04:42:27;;;;;;;5.32;3.70;;;;;;;12.35;89.99;99483.38;5088035;28;20034;-88
2021/07/23 04:44:53;;;;;;;5.13;3.50;;;;;;;12.38;90.11;99451.66;5088542;28;20215;-88
2021/07/23 04:47:18;;;;;;;7.32;3.67;;;;;;;12.48;90.15;99532.50;5087599;28;20028;-88
2021/07/23 04:49:43;;;;;;;7.30;4.28;;;;;;;12.62;89.85;99458.34;5089129;28;20096;-88
2021/07/23 04:52:09;;;;;;;5.90;3.75;;;;;;;12.72;89.63;99481.97;5088893;28;20077;-88
2021/07/23 04:54:34;;;;;;;5.53;3.85;;;;;;;12.92;89.21;99474.59;5107148;28;20054;-88
2021/07/23 04:57:00;;;;;;;7.63;3.42;;;;;;;13.64;88.08;99479.63;5088739;28;20087;-88
2021/07/23 04:59:26;;;;;;;5.32;3.35;;;;;;;14.35;85.46;99482.63;5088655;28;20318;-88
2021/07/23 05:01:51;;;;;;;3.67;2.60;;;;;;;14.91;82.93;99497.28;5088620;28;20016;-88
2021/07/23 05:04:17;;;;;;;5.30;3.47;;;;;;;15.35;80.55;99502.41;5068613;28;20071;-88
2021/07/23 05:06:43;;;;;;;3.40;2.60;;;;;;;15.81;79.44;99481.75;5065059;28;20062;-88
2021/07/23 05:09:08;;;;;;;4.88;2.92;;;;;;;16.18;77.84;99469.22;5065501;28;20021;-88
2021/07/23 05:11:35;;;;;;;6.35;3.78;;;;;;;16.47;76.60;99445.34;5065011;28;20024;-89
2021/07/23 05:14:01;;;;;;;9.93;5.15;;;;;;;16.77;74.46;99452.38;5066371;28;20032;-88
2021/07/23 05:16:28;;;;;;;9.40;6.13;;;;;;;16.99;73.94;99447.25;5048707;28;20041;-88
2021/07/23 05:18:54;;;;;;;12.55;5.32;;;;;;;17.27;73.14;99433.94;5064907;28;20025;-88
2021/07/23 05:21:19;;;;;;;10.57;6.10;;;;;;;17.55;72.36;99424.09;5065961;28;20338;-89
2021/07/23 05:23:46;;;;;;;8.02;4.70;;;;;;;17.83;71.83;99432.84;5064857;28;20047;-88
2021/07/23 05:26:13;;;;;;;10.00;4.88;;;;;;;18.17;71.35;99422.72;5064692;28;20100;-88
2021/07/23 05:28:38;;;;;;;9.15;5.85;;;;;;;18.10;71.03;99406.06;5065017;28;20025;-88
2021/07/23 05:31:05;;;;;;;11.43;5.78;;;;;;;18.44;69.46;99416.34;5064691;28;20346;-88
2021/07/23 05:33:31;;;;;;;10.50;5.40;;;;;;;18.47;69.50;99405.56;5064951;28;20342;-88
2021/07/23 05:35:56;;;;;;;9.30;5.22;;;;;;;18.94;68.44;99417.91;5065605;28;20028;-89
2021/07/23 05:38:21;;;;;;;8.35;4.88;;;;;;;19.12;67.36;99524.75;5064478;28;20021;-89
2021/07/23 05:40:47;;;;;;;7.88;5.45;;;;;;;19.12;69.02;99449.19;5064739;28;20027;-89
2021/07/23 05:43:13;;;;;;;10.73;5.30;;;;;;;19.35;70.03;99440.25;5064435;28;20017;-89
2021/07/23 05:45:40;;;;;;;11.27;5.03;;;;;;;19.72;67.93;99446.66;5064416;28;20041;-89
2021/07/23 05:48:06;;;;;;;8.20;5.10;;;;;;;20.05;67.51;99417.56;5064627;28;20319;-89
2021/07/23 05:50:32;;;;;;;12.73;5.70;;;;;;;20.05;66.45;99413.09;5064566;28;20255;-89
2021/07/23 05:52:57;;;;;;;9.95;5.75;;;;;;;20.41;66.58;99411.44;5064502;28;20017;-89
2021/07/23 05:55:23;;;;;;;10.50;6.15;;;;;;;21.08;64.61;99409.13;5065361;28;20104;-89
2021/07/23 05:57:49;;;;;;;13.88;6.88;;;;;;;21.16;65.13;99402.44;5064084;28;20224;-89
2021/07/23 06:00:15;;;;;;;10.40;6.35;;;;;;;21.54;63.49;99402.31;5064442;28;20062;-89
2021/07/23 06:02:41;;;;;;;8.43;5.88;;;;;;;21.79;63.26;99395.63;5069750;28;20096;-89
2021/07/23 06:05:07;;;;;;;11.48;6.00;;;;;;;21.94;63.01;99381.41;5087711;28;20055;-89
2021/07/23 06:07:32;;;;;;;10.43;6.10;;;;;;;22.18;62.44;99381.91;5087239;28;20043;-89
2021/07/23 06:09:57;;;;;;;8.82;6.28;;;;;;;22.68;60.58;99377.31;5087257;28;20030;-89
2021/07/23 06:12:23;;;;;;;9.00;6.05;;;;;;;22.88;60.71;99356.44;5087183;28;20024;-89
2021/07/23 06:14:48;;;;;;;9.60;5.70;;;;;;;22.91;59.43;99344.69;5087216;28;20027;-89
2021/07/23 06:17:14;;;;;;;10.00;6.35;;;;;;;23.04;60.74;99335.78;5087590;28;20196;-89
2021/07/23 06:19:41;;;;;;;11.55;6.43;;;;;;;23.36;59.75;99331.25;5087679;28;20024;-89
2021/07/23 06:22:07;;;;;;;10.18;5.75;;;;;;;23.98;58.45;99349.81;5087032;28;20032;-89
2021/07/23 06:24:33;;;;;;;15.23;6.20;;;;;;;24.17;58.31;99334.25;5087349;28;20046;-89
2021/07/23 06:26:58;;;;;;;14.20;6.45;;;;;;;24.11;59.18;99325.72;5087244;28;20154;-89
2021/07/23 06:29:24;;;;;;;12.18;7.22;;;;;;;24.17;59.23;99627.50;5086934;28;20027;-89
2021/07/23 06:31:49;;;;;;;13.15;7.35;;;;;;;24.27;58.91;99528.28;5087168;28;20054;-89
2021/07/23 06:34:15;;;;;;;13.18;6.80;;;;;;;24.88;57.91;99386.19;5087296;28;20027;-89
2021/07/23 06:36:40;;;;;;;11.13;7.05;;;;;;;25.23;56.85;99380.22;5086966;28;20043;-89
2021/07/23 06:39:06;;;;;;;13.48;7.13;;;;;;;25.62;57.38;99362.34;5086851;28;20070;-89
2021/07/23 06:41:32;;;;;;;11.98;7.68;;;;;;;25.60;56.39;99340.88;5086778;28;20027;-89
2021/07/23 06:43:58;;;;;;;13.75;7.60;;;;;;;25.86;56.10;99344.44;5086707;28;20062;-89
2021/07/23 06:46:23;;;;;;;13.10;7.68;;;;;;;26.24;55.91;99326.44;5087010;28;20253;-90
2021/07/23 06:48:49;;;;;;;11.82;7.68;;;;;;;26.38;56.53;99318.19;5086900;28;20028;-89
2021/07/23 06:51:14;;;;;;;13.90;7.30;;;;;;;26.59;56.47;99311.22;5086585;28;20058;-89
2021/07/23 06:53:40;;;;;;;11.35;7.55;;;;;;;27.06;53.85;99314.00;5086900;28;20024;-89
2021/07/23 06:56:05;;;;;;;11.15;7.43;;;;;;;26.91;55.58;99426.78;5086772;28;20028;-89
2021/07/23 06:58:31;;;;;;;13.20;7.85;;;;;;;27.47;50.92;99371.22;5086479;28;20028;-89
2021/07/23 07:01:04;;;;;;;8.82;7.00;;;;;;;27.91;53.62;99338.91;5086406;28;20086;-89
2021/07/23 07:03:29;;;;;;;11.20;7.50;;;;;;;26.88;50.97;99301.84;5086247;28;20063;-89
2021/07/23 07:05:55;;;;;;;12.55;7.10;;;;;;;27.51;50.27;99312.34;5086484;28;20024;-89
2021/07/23 07:08:21;;;;;;;9.95;7.03;;;;;;;27.43;50.21;99287.75;5086686;28;20306;-89
2021/07/23 07:10:46;;;;;;;14.95;7.32;;;;;;;28.13;50.04;99294.75;5086388;28;20020;-89
2021/07/23 07:13:12;;;;;;;10.55;6.88;;;;;;;27.86;49.98;99270.75;5086324;28;20019;-89
2021/07/23 07:15:37;;;;;;;11.77;7.10;;;;;;;27.94;50.95;99533.53;5104081;28;20016;-89
2021/07/23 07:18:03;;;;;;;10.80;6.68;;;;;;;27.99;50.08;99460.97;5086566;28;20098;-89
2021/07/23 07:20:31;;;;;;;10.27;7.25;;;;;;;28.59;49.18;99309.91;5086451;28;20026;-89
2021/07/23 07:22:56;;;;;;;12.82;7.20;;;;;;;28.47;48.98;99261.28;5086194;28;20015;-89
2021/07/23 07:25:23;;;;;;;10.93;6.40;;;;;;;29.00;49.79;99271.22;5086266;28;20206;-89
2021/07/23 07:27:49;;;;;;;9.77;6.90;;;;;;;28.79;45.49;99252.19;5104156;28;20022;-89
2021/07/23 07:30:15;;;;;;;11.90;7.07;;;;;;;27.84;48.69;99240.22;5086145;28;20024;-89
2021/07/23 07:32:41;;;;;;;13.05;6.93;;;;;;;28.28;48.21;99231.25;5086195;28;20107;-89
2021/07/23 07:35:07;;;;;;;10.30;7.20;;;;;;;28.47;47.92;99237.75;5086068;28;20050;-89
2021/07/23 07:37:33;;;;;;;20.58;7.22;;;;;;;28.57;45.89;99217.03;5104101;28;20023;-90
2021/07/23 07:39:58;;;;;;;11.75;7.10;;;;;;;28.22;47.63;99199.28;5104092;28;20083;-89
2021/07/23 07:42:24;;;;;;;10.95;6.57;;;;;;;28.92;45.03;99209.50;5086179;28;20027;-89
2021/07/23 07:44:50;;;;;;;10.20;6.65;;;;;;;29.71;43.06;99228.00;5086415;28;20362;-90
2021/07/23 07:47:16;;;;;;;9.15;6.90;;;;;;;29.65;43.28;99404.91;5086402;28;20039;-89
2021/07/23 07:49:41;;;;;;;8.43;6.63;;;;;;;29.52;45.97;99365.34;5086019;28;20027;-90
2021/07/23 07:52:07;;;;;;;9.02;7.22;;;;;;;29.00;42.82;99230.56;5085963;28;20024;-89
2021/07/23 07:54:32;;;;;;;10.18;7.00;;;;;;;28.82;44.01;99229.41;5085999;28;20016;-89
2021/07/23 07:57:06;;;;;;;12.55;6.70;;;;;;;29.33;43.74;99211.44;5085788;28;20024;-89
2021/07/23 07:59:31;;;;;;;8.65;6.40;;;;;;;29.11;42.60;99189.88;5085921;28;20031;-89
2021/07/23 08:01:57;;;;;;;8.85;6.00;;;;;;;29.53;45.08;99191.56;5085807;28;20099;-89
2021/07/23 08:04:22;;;;;;;11.07;6.72;;;;;;;29.01;43.39;99154.53;5085740;28;20275;-89
2021/07/23 08:06:48;;;;;;;9.38;6.82;;;;;;;29.19;41.41;99158.41;5085980;28;20016;-89
2021/07/23 08:09:15;;;;;;;8.45;6.32;;;;;;;29.04;42.01;99138.03;5103890;28;20062;-89
2021/07/23 08:11:41;;;;;;;8.95;6.60;;;;;;;29.81;40.88;99154.75;5085845;28;20043;-89
2021/07/23 08:14:06;;;;;;;11.65;6.57;;;;;;;29.71;39.48;99143.00;5086006;28;20031;-89
2021/07/23 08:16:32;;;;;;;8.20;6.25;;;;;;;29.38;40.66;99107.97;5086038;28;20192;-89
2021/07/23 08:19:02;;;;;;;10.52;6.30;;;;;;;29.75;40.85;99122.72;5086117;28;20050;-90
2021/07/23 08:21:30;;;;;;;10.23;5.75;;;;;;;30.10;38.41;99120.38;5085930;28;20024;-89
2021/07/23 08:23:59;;;;;;;9.88;6.30;;;;;;;30.00;38.44;99111.38;5085955;28;20024;-90
2021/07/23 08:26:25;;;;;;;9.07;6.18;;;;;;;30.04;37.72;99100.09;5088512;28;20016;-89
2021/07/23 08:28:51;;;;;;;9.43;6.22;;;;;;;29.64;39.12;99074.81;5089294;28;20083;-90
2021/07/23 08:31:16;;;;;;;8.90;6.35;;;;;;;29.44;39.69;99069.44;5089267;28;20214;-90
2021/07/23 08:33:42;;;;;;;11.00;6.47;;;;;;;29.37;40.43;99052.00;5089245;28;20031;-90
2021/07/23 08:36:08;;;;;;;8.77;6.55;;;;;;;30.47;39.25;99092.44;5089072;28;20318;-89
2021/07/23 08:38:34;;;;;;;8.55;6.38;;;;;;;30.72;40.18;99086.41;5089146;28;20024;-90
2021/07/23 08:40:59;;;;;;;8.00;5.93;;;;;;;30.81;36.53;99077.44;5089125;28;20099;-90
2021/07/23 08:43:25;;;;;;;12.18;6.53;;;;;;;31.07;35.64;99072.25;5089049;28;20219;-89
2021/07/23 08:45:51;;;;;;;7.85;6.43;;;;;;;30.04;37.41;99017.75;5088963;28;20020;-90
2021/07/23 08:48:16;;;;;;;10.35;6.60;;;;;;;30.62;36.60;99046.66;5089183;28;20348;-90
2021/07/23 08:50:43;;;;;;;9.27;6.85;;;;;;;30.46;36.42;99027.38;5088917;28;20044;-90
2021/07/23 08:53:11;;;;;;;9.27;6.68;;;;;;;30.27;37.32;99011.06;5088829;28;20094;-90
2021/07/23 08:55:38;;;;;;;10.35;7.15;;;;;;;30.12;37.11;99077.66;5088736;28;20027;-89
2021/07/23 08:58:08;;;;;;;10.00;7.03;;;;;;;30.16;36.19;99030.22;5088983;28;20066;-90
2021/07/23 09:00:34;;;;;;;12.40;6.80;;;;;;;29.90;35.76;98996.47;5089064;28;20345;-90
2021/07/23 09:03:02;;;;;;;12.00;7.25;;;;;;;29.69;36.69;98976.72;5088431;28;20043;-89
2021/07/23 09:05:38;;;;;;;7.72;6.45;;;;;;;30.88;35.28;99028.78;5088645;28;20016;-89
2021/07/23 09:08:17;;;;;;;9.50;7.05;;;;;;;31.06;36.11;99024.28;5088604;28;20322;-89
2021/07/23 09:11:01;;;;;;;10.07;7.18;;;;;;;30.83;35.19;99002.03;5088582;28;20043;-90
2021/07/23 09:13:26;;;;;;;9.65;7.28;;;;;;;31.67;34.86;99020.03;5088888;28;20370;-90
2021/07/23 09:15:52;;;;;;;12.05;6.82;;;;;;;30.74;35.26;99505.78;5088486;28;20047;-90
2021/07/23 09:18:27;;;;;;;9.70;7.60;;;;;;;30.83;34.65;99373.63;5088335;28;20200;-89
2021/07/23 09:20:59;;;;;;;9.68;7.45;;;;;;;30.93;34.82;99372.66;5088581;28;20023;-90
2021/07/23 09:23:36;;;;;;;11.43;7.13;;;;;;;30.73;35.28;99236.81;5088243;28;20028;-89
2021/07/23 09:26:11;;;;;;;10.13;7.47;;;;;;;31.39;35.10;99257.75;5088562;28;20015;-90
2021/07/23 09:28:38;;;;;;;11.57;7.40;;;;;;;31.88;34.20;99166.81;5088199;28;20024;-90
2021/07/23 09:31:09;;;;;;;11.63;7.93;;;;;;;31.29;34.80;99125.47;5088129;28;20095;-90
2021/07/23 09:33:40;;;;;;;10.57;7.15;;;;;;;31.76;33.77;99106.22;5088441;28;20046;-90
2021/07/23 09:36:06;;;;;;;;;;;;;;;32.05;33.70;99074.25;5088583;28;20042;-90
2021/07/23 09:38:34;;;;;;;12.15;7.30;;;;;;;31.91;36.33;99058.44;5087287;28;19904;-90
2021/07/23 09:41:00;;;;;;;9.88;6.60;;;;;;;31.95;35.46;99034.50;5088262;28;20024;-90
2021/07/23 09:43:30;;;;;;;9.52;7.85;;;;;;;31.67;34.11;99022.75;5087889;28;20028;-90
2021/07/23 09:46:08;;;;;;;10.60;7.40;;;;;;;32.40;36.08;99027.97;5087838;28;20319;-90
2021/07/23 09:48:33;;;;;;;12.23;8.27;;;;;;;32.41;33.27;99013.38;5087797;28;20020;-90
2021/07/23 09:50:59;;;;;;;11.05;7.57;;;;;;;32.65;33.26;99010.81;5087722;28;20069;-90
2021/07/23 09:53:25;;;;;;;9.82;8.02;;;;;;;33.13;34.19;99011.16;5087582;28;20314;-90
2021/07/23 09:55:52;;;;;;;12.82;7.55;;;;;;;32.86;34.71;98994.13;5088022;28;20099;-90
2021/07/23 09:58:21;;;;;;;10.50;8.13;;;;;;;33.08;31.79;98990.00;5087872;28;20020;-90
2021/07/23 10:00:57;;;;;;;12.45;7.88;;;;;;;32.10;33.34;98938.47;5087599;28;20027;-90
2021/07/23 10:03:27;;;;;;;11.88;8.63;;;;;;;32.33;32.16;98934.25;5087199;28;20334;-90
2021/07/23 10:06:03;;;;;;;11.82;7.90;;;;;;;31.82;34.76;98911.50;5087745;28;20020;-90
2021/07/23 10:08:58;;;;;;;17.52;8.65;;;;;;;32.71;34.32;98927.56;5105486;28;20055;-90
2021/07/23 10:11:25;;;;;;;10.85;8.10;;;;;;;32.55;31.55;98909.22;5084992;28;20028;-90
2021/07/23 10:13:54;;;;;;;10.25;7.93;;;;;;;31.52;33.45;98863.69;5087713;28;20020;-90
2021/07/23 10:16:20;;;;;;;11.93;8.07;;;;;;;31.15;34.81;98833.00;5087610;28;20364;-89
2021/07/23 10:18:46;;;;;;;10.75;8.20;;;;;;;31.33;35.84;98839.34;5088300;28;20026;-90
2021/07/23 10:21:12;;;;;;;9.98;7.97;;;;;;;31.88;34.71;98854.53;5087162;28;20051;-90
2021/07/23 10:23:42;;;;;;;10.55;7.93;;;;;;;32.49;34.20;98868.97;5087077;28;20016;-90
2021/07/23 10:26:07;;;;;;;10.18;7.55;;;;;;;32.26;34.75;98851.41;5087248;28;20103;-90
2021/07/23 10:28:36;;;;;;;12.73;8.50;;;;;;;31.85;32.55;98814.00;5087057;28;20024;-90
2021/07/23 10:31:24;;;;;;;11.15;8.52;;;;;;;30.97;34.87;98777.75;5086915;28;20027;-90
2021/07/23 10:33:54;;;;;;;9.45;7.88;;;;;;;31.20;33.80;98776.28;5086900;28;20103;-90
2021/07/23 10:36:26;;;;;;;12.10;8.32;;;;;;;30.91;34.02;98778.38;5105131;28;20311;-90
2021/07/23 10:39:07;;;;;;;15.30;7.80;;;;;;;31.22;34.89;98815.06;5086814;28;20069;-90
2021/07/23 10:41:32;;;;;;;10.47;7.90;;;;;;;31.23;33.56;98801.31;5085582;28;20020;-88
2021/07/23 10:43:58;;;;;;;12.10;8.25;;;;;;;31.03;33.07;98777.13;5084643;28;20460;-91
2021/07/23 10:46:42;;;;;;;13.35;7.78;;;;;;;31.08;34.99;98777.53;5085632;28;20035;-90
2021/07/23 10:49:08;;;;;;;9.65;7.70;;;;;;;31.25;35.08;98782.09;5085518;28;20314;-89
2021/07/23 10:51:50;;;;;;;9.70;7.63;;;;;;;30.81;32.82;98739.50;5085650;28;20024;-90
2021/07/23 10:54:18;;;;;;;11.57;7.85;;;;;;;30.86;33.08;98737.19;5081104;28;20269;-88
2021/07/23 10:56:58;;;;;;;12.18;8.10;;;;;;;31.10;34.54;98740.16;5085888;28;20031;-88
2021/07/23 10:59:41;;;;;;;10.35;8.15;;;;;;;30.46;33.64;98718.53;5085748;28;20016;-88
2021/07/23 11:02:10;;;;;;;9.57;7.35;;;;;;;30.72;32.33;98713.22;5085804;28;20020;-89
2021/07/23 11:04:39;;;;;;;11.50;8.02;;;;;;;30.31;34.30;98686.59;5063405;28;20029;-91
2021/07/23 11:07:08;;;;;;;10.32;7.88;;;;;;;30.58;35.47;98695.56;5062793;28;20013;-92
2021/07/23 11:09:37;;;;;;;18.70;8.45;;;;;;;30.90;33.35;98705.94;5062189;28;20016;-91
2021/07/23 11:12:33;;;;;;;11.07;7.90;;;;;;;30.65;35.10;98683.06;5063704;28;20023;-91
2021/07/23 11:15:07;;;;;;;8.93;7.38;;;;;;;31.08;34.13;98715.84;5064344;28;20017;-91
2021/07/23 11:17:47;;;;;;;8.93;7.50;;;;;;;30.75;37.06;98696.66;5062684;28;20087;-91
2021/07/23 11:20:16;;;;;;;10.43;7.43;;;;;;;31.37;35.91;98707.44;5062328;28;20067;-91
2021/07/23 11:22:52;;;;;;;10.13;7.65;;;;;;;31.39;33.70;98700.00;5045158;28;20054;-91
2021/07/23 11:25:20;;;;;;;10.57;7.60;;;;;;;31.13;35.54;98690.91;5042748;28;20030;-91
2021/07/23 11:27:52;;;;;;;9.52;7.60;;;;;;;31.13;35.13;98675.41;5043065;28;20032;-91